• Join FlightAware (Why Join?)
  • Login
  • US Flag 
06:07AM EDT


 

Airport Tracker/Info


-or-


 

Live Flight TrackerFlight Track Log ✈ UCA597 ✈ 05-Nov-2013 ✈ KIAD - KBGM

Flight Track Log - Related Links

Times and Time Zones

All times are in EST time to prevent confusion due to time zone crossing. See the UCA597 flight status page for this flight to view local times or setup timezone preferences in your user account.

Time Position Orientation Groundspeed Altitude Reporting Facility
EST Latitude Longitude Course Direction KTS MPH feet Rate Location/Type
05:38PM 39.1075 -77.5764 North 193 222 5,400  Level Washington Center
05:39PM 39.1578 -77.5644 10° North 180 207 7,300 1,620 Climbing Washington Center
05:40PM 39.2081 -77.5497 13° North 193 222 8,600 1,140 Climbing Washington Center
05:41PM 39.0119 -77.4507 North  Level FlightAware Approximate
05:41PM 39.2561 -77.5375 11° North 208 239 9,600  Level Washington Center
05:42PM 39.0631 -77.4500 North  Level FlightAware Approximate
05:42PM 39.3231 -77.5286 North 213 245 11,300  Level Washington Center
05:43PM 39.1280 -77.4500 North  Level FlightAware Approximate
05:43PM 39.3775 -77.5139 12° North 206 237 12,800  Level Washington Center
05:44PM 39.4361 -77.4967 13° North 212 244 13,900 660 Climbing Washington Center
05:45PM 39.4928 -77.4767 15° North 228 262 14,100 960 Climbing Washington Center
05:46PM 39.5575 -77.4542 15° North 234 269 15,900 960 Climbing Washington Center
05:47PM 39.6222 -77.4558 359° North 234 269 16,100  Climbing Washington Center
05:49PM 39.7242 -77.4517 North 255 293 16,000 540 Descending New York Center
05:50PM 39.8014 -77.4508 360° North 258 297 17,500 1,020 Climbing New York Center
05:51PM 39.8583 -77.4375 10° North 235 270 18,100 720 Climbing New York Center
05:52PM 39.9250 -77.4033 21° North 235 270 19,000 420 Climbing New York Center
05:53PM 39.9850 -77.3708 23° Northeast 240 276 19,000  Level New York Center
05:54PM 40.0628 -77.3267 23° Northeast 265 305 19,000  Level New York Center
05:55PM 40.1272 -77.2919 22° Northeast 272 313 19,000  Level New York Center
05:56PM 40.2089 -77.2481 22° Northeast 279 321 19,000  Level New York Center
05:57PM 40.2797 -77.2083 23° Northeast 279 321 19,000  Level New York Center
05:58PM 40.3572 -77.1667 22° Northeast 279 321 19,000  Level New York Center
05:59PM 40.4322 -77.1272 22° Northeast 279 321 19,000 -300 Level New York Center
06:00PM 40.5075 -77.0850 23° Northeast 279 321 18,500 -540 Descending New York Center
06:01PM 40.5869 -77.0403 23° Northeast 290 334 18,000 -900 Descending New York Center
06:02PM 40.6622 -76.9953 24° Northeast 301 346 16,800 -1,200 Descending New York Center
06:03PM 40.7397 -76.9503 24° Northeast 301 346 15,700 -1,140 Descending New York Center
06:04PM 40.8189 -76.9108 21° North 301 346 14,600 -1,140 Descending New York Center
06:05PM 40.8942 -76.8653 25° Northeast 301 346 13,500 -840 Descending New York Center
06:06PM 40.9583 -76.8297 23° Northeast 296 341 13,000 -300 Descending New York Center
06:07PM 41.0292 -76.7894 23° Northeast 285 328 13,000  Level New York Center
06:08PM 41.0978 -76.7514 23° Northeast 272 313 13,000  Level New York Center
06:09PM 41.1686 -76.7108 23° Northeast 267 307 13,000  Level New York Center
06:10PM 41.2461 -76.6625 25° Northeast 267 307 13,000  Level New York Center
06:11PM 41.3061 -76.6289 23° Northeast 261 300 13,000  Level New York Center
06:12PM 41.3747 -76.5906 23° Northeast 261 300 13,000  Level New York Center
06:13PM 41.4517 -76.5475 23° Northeast 261 300 13,000  Level New York Center
06:14PM 41.5225 -76.5064 23° Northeast 261 300 13,000  Level New York Center
06:15PM 41.5889 -76.4678 24° Northeast 261 300 13,000 -300 Level New York Center
06:16PM 41.6533 -76.4289 24° Northeast 261 300 12,500 -900 Descending New York Center
06:17PM 41.7244 -76.3767 29° Northeast 276 318 11,300 -1,260 Descending New York Center
06:18PM 41.8022 -76.3136 31° Northeast 288 331 10,000 -1,260 Descending New York Center
06:19PM 41.8717 -76.2581 31° Northeast 282 325 8,800 -1,200 Descending New York Center
06:20PM 41.9308 -76.1933 39° Northeast 277 319 7,600 -1,200 Descending New York Center
06:21PM 41.9814 -76.1331 42° Northeast 272 313 6,400 -1,200 Descending New York Center
06:22PM 42.0383 -76.0708 39° Northeast 266 306 5,300 -1,200 Descending New York Center
06:23PM 42.0953 -76.0083 39° Northeast 261 300 4,100 -1,080 Descending New York Center
06:24PM 42.1389 -75.9614 39° Northeast 235 270 3,200 -1,020 Descending New York Center
06:25PM 42.1767 -75.9531 North 159 183 2,100 4,860 Descending New York Center
06:26PM 42.2258 -75.9233 24° Northeast 159 183 13,000 5,400 Climbing New York Center
06:27PM 42.2686 -75.8989 23° Northeast 159 183 13,000  Level New York Center
06:28PM 42.3111 -75.8742 23° Northeast 159 183 13,000  Level New York Center
06:29PM 42.3539 -75.8494 23° Northeast 159 183 13,000  Level New York Center
06:31PM 42.2521 -75.9271 209° Southwest  Level FlightAware Approximate